Time;durP1;ratioP1;P1;durP2;ratioP2;P2;SDS_P1;SDS_P2;PMS_P1;PMS_P2;Temp;Humidity;BMP_temperature;BMP_pressure;BME280_temperature;BME280_humidity;BME280_pressure;Samples;Min_cycle;Max_cycle;Signal;HPM_P1;HPM_P2
2022/08/08 00:00:16;;;;;;;3.15;2.85;;;17.80;92.70;;;;;;5042544;28;20108;-43
2022/08/08 00:02:55;;;;;;;2.40;2.20;;;17.80;92.70;;;;;;5045368;28;20136;-43
2022/08/08 00:05:44;;;;;;;6.18;2.78;;;17.80;92.80;;;;;;5043064;28;20041;-43
2022/08/08 00:08:19;;;;;;;3.58;2.80;;;17.70;92.90;;;;;;5044943;28;20021;-44
2022/08/08 00:11:01;;;;;;;3.97;2.85;;;17.70;92.90;;;;;;5044590;28;20341;-43
2022/08/08 00:13:56;;;;;;;3.00;2.70;;;17.70;93.00;;;;;;5044384;28;20036;-42
2022/08/08 00:16:41;;;;;;;4.15;2.60;;;17.60;93.10;;;;;;5037295;28;20064;-42
2022/08/08 00:19:17;;;;;;;3.08;2.72;;;17.60;93.10;;;;;;5045200;28;20021;-43
2022/08/08 00:21:56;;;;;;;4.78;2.65;;;17.60;93.20;;;;;;5043948;28;20490;-43
2022/08/08 00:24:39;;;;;;;4.53;3.05;;;17.60;93.30;;;;;;5045836;28;20035;-44
2022/08/08 00:27:08;;;;;;;4.00;2.75;;;17.60;93.40;;;;;;5045260;28;20099;-43
2022/08/08 00:29:51;;;;;;;3.35;2.55;;;17.50;93.40;;;;;;5045171;28;20021;-44
2022/08/08 00:32:28;;;;;;;4.47;2.60;;;17.60;93.60;;;;;;5045621;28;20044;-42
2022/08/08 00:35:09;;;;;;;3.00;2.70;;;17.60;93.60;;;;;;5045306;28;20025;-44
2022/08/08 00:37:57;;;;;;;3.42;2.58;;;17.60;93.60;;;;;;5049396;28;20138;-44
2022/08/08 00:40:52;;;;;;;3.13;2.50;;;17.50;93.70;;;;;;5049435;28;20247;-44
2022/08/08 00:43:42;;;;;;;3.17;2.58;;;17.50;93.80;;;;;;5048682;28;20048;-43
2022/08/08 00:46:38;;;;;;;2.45;2.10;;;17.50;93.80;;;;;;5048579;28;20024;-43
2022/08/08 00:49:04;;;;;;;4.60;2.40;;;17.50;93.80;;;;;;5048956;28;20091;-43
2022/08/08 00:51:44;;;;;;;3.70;2.53;;;17.50;93.80;;;;;;5048797;28;20029;-43
2022/08/08 00:54:43;;;;;;;3.22;2.45;;;17.50;94.00;;;;;;5049224;28;20087;-44
2022/08/08 00:57:26;;;;;;;3.47;2.42;;;17.50;94.10;;;;;;5047984;28;20033;-44
2022/08/08 01:00:07;;;;;;;2.80;2.50;;;17.50;94.20;;;;;;5048846;28;20033;-42
2022/08/08 01:02:54;;;;;;;3.38;2.65;;;17.40;94.40;;;;;;5047892;28;20814;-43
2022/08/08 01:05:51;;;;;;;6.57;2.80;;;17.40;94.50;;;;;;5048498;28;20027;-44
2022/08/08 01:08:34;;;;;;;5.05;2.78;;;17.40;94.60;;;;;;5041215;28;20102;-44
2022/08/08 01:11:27;;;;;;;3.80;2.90;;;17.40;94.60;;;;;;5047602;28;20383;-44
2022/08/08 01:14:48;;;;;;;2.80;2.50;;;17.40;94.70;;;;;;5048705;28;20044;-44
2022/08/08 01:17:35;;;;;;;5.28;2.50;;;17.40;94.70;;;;;;5024916;28;20041;-43
2022/08/08 01:20:32;;;;;;;3.28;2.78;;;17.30;94.70;;;;;;5048547;28;20210;-43
2022/08/08 01:23:12;;;;;;;2.88;2.60;;;17.30;94.80;;;;;;5048087;28;20450;-43
2022/08/08 01:26:13;;;;;;;3.20;2.90;;;17.30;94.80;;;;;;5047521;28;20523;-43
2022/08/08 01:29:09;;;;;;;3.40;2.47;;;17.30;94.90;;;;;;5038463;28;20380;-43
2022/08/08 01:31:59;;;;;;;5.10;2.80;;;17.20;94.90;;;;;;5047528;28;20131;-43
2022/08/08 01:34:53;;;;;;;3.25;2.50;;;17.20;95.00;;;;;;5047666;28;20028;-42
2022/08/08 01:37:56;;;;;;;4.78;2.97;;;17.20;95.20;;;;;;5048299;28;20036;-43
2022/08/08 01:40:27;;;;;;;5.15;2.97;;;17.10;95.20;;;;;;5028630;28;20025;-43
2022/08/08 01:42:57;;;;;;;4.03;2.83;;;17.10;95.20;;;;;;5043975;28;20049;-44
2022/08/08 01:45:32;;;;;;;3.78;2.78;;;17.10;95.30;;;;;;5047644;28;20450;-44
2022/08/08 01:48:24;;;;;;;4.78;2.75;;;17.10;95.40;;;;;;5046918;28;20366;-43
2022/08/08 01:51:23;;;;;;;3.15;2.85;;;17.10;95.50;;;;;;5028325;28;20474;-43
2022/08/08 01:54:04;;;;;;;4.80;2.80;;;17.10;95.50;;;;;;5046094;28;20497;-42
2022/08/08 01:57:03;;;;;;;3.60;2.63;;;17.00;95.50;;;;;;5048427;28;20115;-44
2022/08/08 01:59:54;;;;;;;3.95;2.80;;;17.00;95.50;;;;;;5045962;28;20029;-43
2022/08/08 02:02:37;;;;;;;4.25;3.30;;;17.00;95.60;;;;;;5047694;28;20487;-43
2022/08/08 02:05:17;;;;;;;3.13;2.88;;;17.00;95.70;;;;;;5047911;28;20029;-43
2022/08/08 02:08:01;;;;;;;3.85;2.92;;;17.00;95.80;;;;;;5047248;28;20060;-42
2022/08/08 02:10:52;;;;;;;3.70;2.97;;;16.90;95.80;;;;;;5047136;28;20025;-43
2022/08/08 02:13:30;;;;;;;4.22;2.40;;;16.90;95.90;;;;;;5046822;28;20021;-43
2022/08/08 02:16:17;;;;;;;4.35;3.10;;;16.90;96.00;;;;;;5047235;28;20025;-43
2022/08/08 02:18:55;;;;;;;3.20;2.88;;;16.80;96.10;;;;;;5047305;28;20491;-43
2022/08/08 02:24:37;;;;;;;3.10;2.80;;;16.90;96.20;;;;;;5047482;28;20129;-43
2022/08/08 02:27:29;;;;;;;7.00;3.33;;;16.80;96.20;;;;;;5026958;28;20564;-42
2022/08/08 02:30:07;;;;;;;4.38;2.65;;;16.80;96.20;;;;;;5046828;28;20024;-43
2022/08/08 02:32:56;;;;;;;3.28;2.67;;;16.70;96.30;;;;;;5046982;28;20129;-43
2022/08/08 02:35:53;;;;;;;4.00;3.00;;;16.70;96.40;;;;;;5043377;28;20036;-43
2022/08/08 02:38:37;;;;;;;2.45;2.03;;;16.70;96.40;;;;;;5038129;28;20044;-43
2022/08/08 02:41:28;;;;;;;2.72;2.40;;;16.70;96.40;;;;;;5035950;28;20025;-44
2022/08/08 02:44:19;;;;;;;3.47;2.75;;;16.70;96.40;;;;;;5046617;28;20036;-44
2022/08/08 02:47:15;;;;;;;3.30;2.70;;;16.60;96.40;;;;;;5046671;28;20066;-43
2022/08/08 02:50:00;;;;;;;3.03;2.72;;;16.60;96.50;;;;;;5045688;28;20131;-43
2022/08/08 02:52:44;;;;;;;4.43;3.20;;;16.60;96.60;;;;;;5046345;28;20021;-41
2022/08/08 02:55:43;;;;;;;2.78;2.58;;;16.50;96.90;;;;;;5045940;28;20026;-43
2022/08/08 02:58:27;;;;;;;4.15;2.70;;;16.50;96.70;;;;;;5027196;28;20037;-42
2022/08/08 03:01:17;;;;;;;3.50;2.75;;;16.50;96.60;;;;;;5045675;28;20052;-44
2022/08/08 03:04:22;;;;;;;2.97;2.60;;;16.40;96.80;;;;;;5045707;28;20045;-44
2022/08/08 03:07:26;;;;;;;4.55;2.97;;;16.30;96.80;;;;;;5035351;28;20055;-44
2022/08/08 03:10:41;;;;;;;4.03;3.50;;;16.30;97.20;;;;;;5045397;28;20374;-44
2022/08/08 03:13:25;;;;;;;5.28;3.55;;;16.20;97.20;;;;;;4989179;28;20040;-43
2022/08/08 03:16:10;;;;;;;4.60;3.58;;;16.20;97.20;;;;;;5045984;28;20032;-43
2022/08/08 03:19:10;;;;;;;3.25;2.95;;;16.10;97.20;;;;;;5026419;28;20026;-44
2022/08/08 03:21:35;;;;;;;4.28;3.25;;;16.10;97.40;;;;;;5045292;28;20053;-43
2022/08/08 03:24:01;;;;;;;4.38;3.20;;;16.00;97.40;;;;;;5045031;28;20784;-43
2022/08/08 03:26:31;;;;;;;4.18;3.78;;;16.00;97.60;;;;;;5046025;28;20024;-44
2022/08/08 03:29:06;;;;;;;6.22;3.85;;;15.90;97.70;;;;;;5046035;28;20028;-43
2022/08/08 03:34:16;;;;;;;3.38;3.08;;;15.90;97.90;;;;;;5037760;28;20052;-44
2022/08/08 03:36:42;;;;;;;4.35;3.90;;;15.80;97.90;;;;;;5044533;28;20118;-42
2022/08/08 03:39:13;;;;;;;3.08;2.80;;;15.80;98.00;;;;;;5045391;28;20040;-43
2022/08/08 03:41:40;;;;;;;4.55;3.88;;;15.80;98.10;;;;;;5045321;28;20040;-43
2022/08/08 03:44:06;;;;;;;3.90;3.33;;;15.70;98.10;;;;;;5045071;28;20029;-43
2022/08/08 03:46:46;;;;;;;5.22;3.35;;;15.70;98.20;;;;;;5045161;28;20472;-43
2022/08/08 03:49:21;;;;;;;5.10;2.95;;;15.70;98.30;;;;;;5046154;28;20024;-42
2022/08/08 03:51:55;;;;;;;5.72;3.63;;;15.70;98.30;;;;;;5044544;28;20029;-43
2022/08/08 03:54:22;;;;;;;4.30;3.58;;;15.70;98.40;;;;;;5045952;28;20021;-43
2022/08/08 03:56:48;;;;;;;4.38;3.08;;;15.70;98.50;;;;;;5045645;28;20163;-44
2022/08/08 03:59:13;;;;;;;4.57;3.20;;;15.70;98.70;;;;;;5045383;28;20472;-43
2022/08/08 04:01:40;;;;;;;4.10;3.30;;;15.70;98.70;;;;;;5044894;28;20394;-43
2022/08/08 04:04:06;;;;;;;3.95;3.35;;;15.70;98.80;;;;;;5045278;28;20079;-43
2022/08/08 04:06:32;;;;;;;4.20;3.42;;;15.70;98.90;;;;;;5044716;28;20060;-43
2022/08/08 04:09:00;;;;;;;5.40;3.78;;;15.70;99.00;;;;;;5045344;28;20067;-43
2022/08/08 04:11:26;;;;;;;3.78;3.38;;;15.70;99.20;;;;;;5045529;28;20025;-43
2022/08/08 04:13:52;;;;;;;5.00;4.25;;;15.60;99.20;;;;;;5044488;28;20526;-43
2022/08/08 04:16:18;;;;;;;3.97;3.38;;;15.60;99.30;;;;;;5045738;28;20052;-43
2022/08/08 04:18:45;;;;;;;3.75;3.10;;;15.60;99.40;;;;;;5044786;28;20063;-42
2022/08/08 04:21:11;;;;;;;4.90;3.60;;;15.50;99.40;;;;;;5045071;28;20548;-43
2022/08/08 04:23:36;;;;;;;6.00;3.67;;;15.50;99.60;;;;;;5045546;28;20028;-43
2022/08/08 04:26:02;;;;;;;4.30;3.88;;;15.50;99.70;;;;;;5045261;28;20032;-42
2022/08/08 04:28:27;;;;;;;4.78;4.03;;;15.40;99.90;;;;;;5044153;28;20043;-44
2022/08/08 04:30:53;;;;;;;6.07;4.57;;;15.40;99.90;;;;;;5045361;28;20037;-42
2022/08/08 04:33:18;;;;;;;4.43;3.75;;;15.40;99.90;;;;;;5044327;28;20052;-43
2022/08/08 04:35:44;;;;;;;4.22;3.72;;;15.40;99.90;;;;;;5044609;28;20013;-43
2022/08/08 04:38:09;;;;;;;5.28;4.30;;;15.30;99.90;;;;;;5045279;28;20808;-43
2022/08/08 04:40:35;;;;;;;4.53;3.53;;;15.30;99.90;;;;;;5044302;28;20021;-43
2022/08/08 04:43:02;;;;;;;4.55;4.15;;;15.30;99.90;;;;;;5044970;28;20033;-43
2022/08/08 04:45:27;;;;;;;4.45;3.67;;;15.30;99.90;;;;;;5045198;28;20423;-43
2022/08/08 04:47:57;;;;;;;4.63;3.60;;;15.30;99.90;;;;;;5044004;28;20538;-43
2022/08/08 04:50:23;;;;;;;4.18;3.78;;;15.30;99.90;;;;;;5044836;28;20040;-44
2022/08/08 04:52:49;;;;;;;5.88;4.20;;;15.30;99.90;;;;;;5045041;28;20660;-43
2022/08/08 04:55:14;;;;;;;3.03;2.72;;;15.30;99.90;;;;;;5044401;28;20021;-43
2022/08/08 04:57:40;;;;;;;4.38;3.90;;;15.40;99.90;;;;;;5044994;28;20040;-43
2022/08/08 05:00:06;;;;;;;3.47;2.67;;;15.40;99.90;;;;;;5045420;28;20028;-42
2022/08/08 05:02:32;;;;;;;4.03;3.30;;;15.40;99.90;;;;;;5044010;28;20373;-42
2022/08/08 05:04:58;;;;;;;3.22;2.70;;;15.40;99.90;;;;;;5044699;28;20078;-42
2022/08/08 05:07:24;;;;;;;2.80;2.58;;;15.50;99.90;;;;;;5045122;28;20025;-43
2022/08/08 05:09:49;;;;;;;4.05;2.42;;;15.50;99.90;;;;;;5044004;28;20033;-43
2022/08/08 05:12:15;;;;;;;2.72;2.50;;;15.50;99.90;;;;;;5045003;28;20108;-43
2022/08/08 05:14:40;;;;;;;2.50;2.30;;;15.60;99.90;;;;;;5044548;28;20029;-43
2022/08/08 05:17:07;;;;;;;2.60;2.40;;;15.70;99.90;;;;;;5043813;28;20157;-42
2022/08/08 05:19:34;;;;;;;4.28;2.80;;;15.70;99.90;;;;;;5044529;28;20033;-43
2022/08/08 05:22:00;;;;;;;5.95;3.25;;;15.80;99.90;;;;;;5046228;28;20483;-43
2022/08/08 05:24:25;;;;;;;3.70;3.20;;;15.80;99.90;;;;;;5047434;28;20044;-42
2022/08/08 05:26:51;;;;;;;6.13;3.50;;;15.80;99.90;;;;;;5047840;28;20060;-44
2022/08/08 05:29:16;;;;;;;4.18;3.15;;;15.90;99.90;;;;;;5048500;28;20477;-43
2022/08/08 05:31:42;;;;;;;3.67;2.80;;;15.90;99.90;;;;;;5047346;28;20025;-43
2022/08/08 05:34:24;;;;;;;4.47;3.20;;;15.90;99.90;;;;;;5048436;28;20492;-43
2022/08/08 05:36:52;;;;;;;4.30;2.80;;;15.90;99.90;;;;;;5034605;28;20025;-42
2022/08/08 05:39:21;;;;;;;4.78;2.85;;;15.90;99.90;;;;;;5046980;28;20407;-43
2022/08/08 05:41:49;;;;;;;3.00;2.70;;;16.00;99.90;;;;;;5045836;28;20703;-43
2022/08/08 05:44:21;;;;;;;4.13;2.33;;;16.00;99.90;;;;;;5046047;28;20047;-43
2022/08/08 05:46:49;;;;;;;2.78;2.50;;;16.00;99.90;;;;;;5043943;28;20025;-43
2022/08/08 05:49:15;;;;;;;2.47;2.28;;;16.10;99.90;;;;;;5048033;28;20116;-43
2022/08/08 05:51:43;;;;;;;2.92;2.10;;;16.10;99.90;;;;;;5046182;28;20104;-43
2022/08/08 05:54:09;;;;;;;2.33;1.75;;;16.20;99.90;;;;;;5047026;28;20051;-43
2022/08/08 05:56:39;;;;;;;1.80;1.42;;;16.30;99.90;;;;;;5046688;28;20112;-43
2022/08/08 05:59:09;;;;;;;1.85;1.70;;;16.40;99.90;;;;;;5046268;28;20063;-43
2022/08/08 06:01:40;;;;;;;3.00;1.65;;;16.50;99.90;;;;;;5046690;28;20049;-43
2022/08/08 06:04:09;;;;;;;2.40;1.83;;;16.50;99.90;;;;;;5026560;28;20540;-44
2022/08/08 06:06:39;;;;;;;2.78;1.30;;;16.60;99.90;;;;;;5041087;28;20025;-43
2022/08/08 06:09:08;;;;;;;1.77;1.27;;;16.70;99.90;;;;;;5046549;28;20051;-43
2022/08/08 06:11:33;;;;;;;2.60;1.70;;;16.70;99.90;;;;;;5046371;28;20037;-43
2022/08/08 06:14:04;;;;;;;2.05;1.30;;;16.80;99.90;;;;;;5046343;28;20820;-43
2022/08/08 06:16:37;;;;;;;2.15;1.40;;;16.90;99.90;;;;;;5046310;28;20028;-43
2022/08/08 06:19:03;;;;;;;;;;;16.90;99.90;;;;;;5046516;28;20026;-42
2022/08/08 06:21:29;;;;;;;3.00;1.70;;;17.00;99.90;;;;;;5046849;28;19934;-43
2022/08/08 06:23:55;;;;;;;1.42;1.20;;;17.00;99.90;;;;;;5046240;28;20039;-44
2022/08/08 06:26:23;;;;;;;2.92;1.85;;;17.10;99.80;;;;;;5045629;28;20024;-43
2022/08/08 06:29:10;;;;;;;1.67;1.42;;;17.20;99.70;;;;;;5046422;28;20052;-43
2022/08/08 06:31:37;;;;;;;2.17;1.38;;;17.20;99.70;;;;;;5046067;28;20048;-43
2022/08/08 06:34:19;;;;;;;1.98;1.30;;;17.30;99.60;;;;;;5045284;28;20086;-43
2022/08/08 06:36:47;;;;;;;1.88;1.13;;;17.30;99.50;;;;;;5046368;28;20555;-43
2022/08/08 06:39:13;;;;;;;2.55;1.50;;;17.40;99.50;;;;;;5046703;28;20480;-44
2022/08/08 06:41:49;;;;;;;3.22;1.40;;;17.40;99.50;;;;;;5045422;28;20021;-44
2022/08/08 06:44:17;;;;;;;4.28;1.80;;;17.50;99.50;;;;;;5047133;28;20033;-43
2022/08/08 06:46:43;;;;;;;3.38;1.55;;;17.50;99.40;;;;;;5046794;28;20032;-44
2022/08/08 06:49:09;;;;;;;1.73;1.20;;;17.60;99.30;;;;;;5046259;28;20025;-44
2022/08/08 06:51:35;;;;;;;2.05;1.50;;;17.60;99.30;;;;;;5046756;28;20028;-43
2022/08/08 06:54:03;;;;;;;2.80;1.48;;;17.70;99.20;;;;;;5045403;28;20094;-44
2022/08/08 06:56:30;;;;;;;2.28;1.33;;;17.80;99.20;;;;;;5046618;28;20021;-44
2022/08/08 06:58:55;;;;;;;1.98;1.10;;;17.80;99.10;;;;;;5046709;28;20025;-44
2022/08/08 07:01:24;;;;;;;2.40;1.17;;;17.90;99.10;;;;;;5046403;28;20477;-43
2022/08/08 07:04:08;;;;;;;1.95;1.20;;;17.90;99.00;;;;;;5045952;28;20120;-43
2022/08/08 07:06:36;;;;;;;1.50;1.10;;;18.00;99.00;;;;;;5046574;28;20033;-43
2022/08/08 07:09:09;;;;;;;1.70;1.23;;;18.00;98.90;;;;;;5045836;28;20634;-45
2022/08/08 07:11:39;;;;;;;;;;;18.10;98.80;;;;;;5046813;28;20032;-43
2022/08/08 07:14:06;;;;;;;2.95;1.20;;;18.20;98.70;;;;;;5045695;28;20823;-44
2022/08/08 07:16:49;;;;;;;1.73;1.13;;;18.30;98.60;;;;;;5045649;28;20029;-44
2022/08/08 07:19:39;;;;;;;2.65;1.13;;;18.30;98.50;;;;;;5045179;28;20356;-43
2022/08/08 07:22:06;;;;;;;3.15;1.73;;;18.30;98.40;;;;;;5045638;28;20075;-43
2022/08/08 07:24:48;;;;;;;3.60;1.48;;;18.40;98.20;;;;;;5045847;28;20033;-43
2022/08/08 07:27:15;;;;;;;1.73;1.20;;;18.50;98.10;;;;;;5046757;28;20036;-42
2022/08/08 07:29:41;;;;;;;1.70;1.38;;;18.50;98.00;;;;;;5044839;28;20052;-43
2022/08/08 07:32:08;;;;;;;5.65;1.85;;;18.60;97.80;;;;;;5046180;28;20056;-43
2022/08/08 07:34:34;;;;;;;4.00;1.67;;;18.60;97.80;;;;;;5045429;28;20031;-42
2022/08/08 07:37:02;;;;;;;3.42;1.50;;;18.70;97.70;;;;;;5045114;28;20590;-44
2022/08/08 07:39:30;;;;;;;1.75;1.50;;;18.70;97.60;;;;;;5046325;28;20021;-44
2022/08/08 07:41:57;;;;;;;3.63;2.03;;;18.80;97.50;;;;;;5045758;28;20028;-43
2022/08/08 07:44:24;;;;;;;3.00;1.70;;;18.80;97.30;;;;;;5044139;28;20385;-44
2022/08/08 07:46:49;;;;;;;3.47;1.63;;;18.90;97.30;;;;;;5046067;28;20017;-44
2022/08/08 07:49:15;;;;;;;2.00;1.60;;;18.90;97.10;;;;;;5045941;28;20025;-42
2022/08/08 07:51:41;;;;;;;2.65;1.30;;;18.90;97.10;;;;;;5045530;28;20040;-44
2022/08/08 07:54:41;;;;;;;1.35;1.20;;;19.00;97.00;;;;;;5045221;28;20373;-43
2022/08/08 07:57:19;;;;;;;5.18;1.50;;;19.00;96.90;;;;;;5045898;28;20044;-44
2022/08/08 08:00:08;;;;;;;1.92;1.38;;;19.00;96.70;;;;;;5045352;28;20062;-44
2022/08/08 08:02:42;;;;;;;2.53;1.20;;;19.10;96.30;;;;;;5045459;28;20057;-43
2022/08/08 08:05:19;;;;;;;2.22;1.30;;;19.20;96.30;;;;;;5044506;28;20416;-44
2022/08/08 08:07:48;;;;;;;1.95;1.10;;;19.20;96.20;;;;;;5044871;28;20472;-43
2022/08/08 08:10:19;;;;;;;2.75;1.00;;;19.20;96.10;;;;;;5045873;28;20043;-43
2022/08/08 08:12:53;;;;;;;2.58;1.20;;;19.20;96.10;;;;;;5044587;28;20184;-43
2022/08/08 08:15:25;;;;;;;1.88;1.20;;;19.30;96.00;;;;;;5044773;28;20116;-43
2022/08/08 08:17:56;;;;;;;1.77;1.08;;;19.40;95.90;;;;;;5045203;28;20059;-43
2022/08/08 08:20:26;;;;;;;2.85;1.10;;;19.40;95.80;;;;;;5044537;28;20020;-43
2022/08/08 08:22:52;;;;;;;2.03;1.30;;;19.40;95.70;;;;;;5044959;28;20032;-44
2022/08/08 08:25:17;;;;;;;1.63;0.90;;;19.40;95.70;;;;;;5045297;28;20021;-44
2022/08/08 08:27:43;;;;;;;2.25;0.90;;;19.50;95.60;;;;;;5044660;28;20025;-43
2022/08/08 08:30:09;;;;;;;2.00;1.05;;;19.60;95.40;;;;;;5044907;28;20507;-43
2022/08/08 08:32:34;;;;;;;1.08;0.90;;;19.60;95.30;;;;;;5042763;28;20047;-43
2022/08/08 08:35:00;;;;;;;1.42;0.80;;;19.60;95.10;;;;;;5044039;28;20040;-44
2022/08/08 08:37:26;;;;;;;1.05;0.70;;;19.70;95.00;;;;;;5044671;28;20671;-43
2022/08/08 08:39:52;;;;;;;1.15;0.82;;;19.80;94.90;;;;;;5044773;28;20029;-43
2022/08/08 08:42:17;;;;;;;1.88;1.05;;;19.70;94.70;;;;;;5044739;28;20163;-44
2022/08/08 08:44:43;;;;;;;2.13;0.90;;;19.80;94.50;;;;;;5044628;28;20467;-43
2022/08/08 08:47:09;;;;;;;3.83;1.25;;;19.90;94.20;;;;;;5044609;28;20151;-43
2022/08/08 08:49:35;;;;;;;1.60;0.80;;;19.90;93.60;;;;;;5044612;28;20569;-43
2022/08/08 08:52:05;;;;;;;2.42;0.80;;;19.90;93.70;;;;;;5044587;28;20029;-43
2022/08/08 08:54:33;;;;;;;2.50;0.80;;;19.90;93.70;;;;;;5044099;28;20084;-43
2022/08/08 08:57:01;;;;;;;1.02;0.80;;;20.00;93.60;;;;;;5048007;28;20029;-43
2022/08/08 08:59:30;;;;;;;1.52;0.95;;;20.10;93.40;;;;;;5048685;28;20063;-43
2022/08/08 09:01:57;;;;;;;2.75;0.90;;;20.20;93.10;;;;;;5048196;28;20040;-43
2022/08/08 09:04:26;;;;;;;1.25;0.77;;;20.30;92.80;;;;;;5048472;28;20127;-43
2022/08/08 09:06:52;;;;;;;1.95;0.80;;;20.40;92.50;;;;;;5036695;28;20514;-43
2022/08/08 09:09:24;;;;;;;1.08;0.70;;;20.50;92.40;;;;;;5048419;28;20029;-43
2022/08/08 09:11:52;;;;;;;1.92;1.02;;;20.60;92.00;;;;;;5048448;28;20021;-43
2022/08/08 09:14:22;;;;;;;1.50;0.88;;;20.70;91.20;;;;;;5048679;28;20051;-42
2022/08/08 09:16:49;;;;;;;0.95;0.75;;;20.80;91.20;;;;;;5046931;28;20033;-44
2022/08/08 09:19:16;;;;;;;1.60;0.80;;;20.90;91.00;;;;;;5037536;28;20013;-44
2022/08/08 09:21:43;;;;;;;0.70;0.70;;;21.00;91.10;;;;;;5047928;28;20017;-44
2022/08/08 09:24:09;;;;;;;1.85;0.80;;;21.00;90.90;;;;;;5048388;28;20126;-43
2022/08/08 09:27:06;;;;;;;1.00;0.60;;;21.10;90.80;;;;;;5048633;28;20430;-43
2022/08/08 09:29:48;;;;;;;1.23;0.65;;;21.30;90.80;;;;;;5047381;28;20092;-44
2022/08/08 09:32:20;;;;;;;1.30;0.63;;;21.40;90.50;;;;;;5048915;28;20036;-44
2022/08/08 09:34:49;;;;;;;1.00;0.75;;;21.60;90.40;;;;;;5037021;28;20029;-43
2022/08/08 09:37:18;;;;;;;1.63;0.70;;;21.80;90.00;;;;;;5048346;28;20021;-43
2022/08/08 09:40:05;;;;;;;1.05;0.60;;;21.90;90.10;;;;;;5046765;28;20036;-43
2022/08/08 09:42:36;;;;;;;0.60;0.60;;;22.00;90.00;;;;;;5047501;28;20103;-43
2022/08/08 09:45:32;;;;;;;1.88;0.68;;;22.10;89.50;;;;;;5046362;28;20024;-43
2022/08/08 09:48:02;;;;;;;1.30;0.57;;;22.20;89.00;;;;;;5042892;28;20496;-43
2022/08/08 09:50:32;;;;;;;0.77;0.70;;;22.20;88.70;;;;;;5046830;28;20078;-43
2022/08/08 09:53:00;;;;;;;1.33;0.73;;;22.20;88.80;;;;;;5047852;28;20036;-43
2022/08/08 09:55:26;;;;;;;1.15;0.70;;;22.30;88.80;;;;;;5047745;28;20025;-43
2022/08/08 09:58:04;;;;;;;1.15;0.70;;;22.30;88.50;;;;;;5045547;28;21022;-44
2022/08/08 10:00:32;;;;;;;0.80;0.50;;;22.30;88.10;;;;;;5045748;28;20029;-44
2022/08/08 10:03:02;;;;;;;1.63;0.75;;;22.40;87.80;;;;;;5046570;28;20048;-43
2022/08/08 10:05:36;;;;;;;0.98;0.68;;;22.40;87.10;;;;;;5046310;28;20032;-44
2022/08/08 10:08:03;;;;;;;1.20;0.60;;;22.40;87.00;;;;;;5045696;28;20665;-43
2022/08/08 10:10:35;;;;;;;1.48;0.75;;;22.40;87.00;;;;;;5046424;28;20032;-43
2022/08/08 10:13:23;;;;;;;2.65;0.85;;;22.40;86.40;;;;;;5045881;28;20060;-43
2022/08/08 10:15:51;;;;;;;2.17;0.82;;;22.30;86.10;;;;;;5046552;28;20036;-43
2022/08/08 10:18:32;;;;;;;0.52;0.50;;;22.30;85.50;;;;;;5046138;28;20025;-43
2022/08/08 10:21:09;;;;;;;1.20;0.77;;;22.30;85.90;;;;;;5046555;28;20401;-43
2022/08/08 10:23:34;;;;;;;1.00;0.60;;;22.30;85.60;;;;;;5046015;28;20048;-43
2022/08/08 10:26:04;;;;;;;0.60;0.60;;;22.30;85.40;;;;;;5045941;28;20025;-43
2022/08/08 10:28:35;;;;;;;1.02;0.55;;;22.40;85.40;;;;;;5046633;28;20059;-43
2022/08/08 10:32:30;;;;;;;0.40;0.40;;;22.50;85.30;;;;;;5046416;28;20111;-43
2022/08/08 10:33:52;;;;;;;1.60;0.65;;;22.70;85.20;;;;;;5045806;28;20219;-43
2022/08/08 10:36:23;;;;;;;1.30;0.70;;;22.70;84.30;;;;;;5046909;28;20021;-43
2022/08/08 10:38:52;;;;;;;1.63;0.90;;;22.80;84.40;;;;;;5046121;28;20476;-43
2022/08/08 10:41:22;;;;;;;2.63;0.80;;;22.80;84.10;;;;;;5045490;28;20622;-44
2022/08/08 10:43:50;;;;;;;1.55;0.80;;;22.80;83.80;;;;;;5045183;28;20036;-41
2022/08/08 10:46:26;;;;;;;1.23;0.88;;;22.80;83.70;;;;;;5045819;28;20029;-43
2022/08/08 10:48:53;;;;;;;1.63;0.80;;;22.80;83.50;;;;;;5046027;28;20033;-43
2022/08/08 10:51:20;;;;;;;0.77;0.73;;;22.70;83.40;;;;;;5046404;28;20020;-44
2022/08/08 10:53:48;;;;;;;0.80;0.60;;;22.80;83.60;;;;;;5045527;28;20037;-43
2022/08/08 10:56:14;;;;;;;1.40;0.60;;;22.90;83.70;;;;;;5046073;28;20100;-44
2022/08/08 10:58:40;;;;;;;1.55;0.73;;;23.00;83.50;;;;;;5045901;28;20697;-43
2022/08/08 11:01:09;;;;;;;1.80;0.77;;;23.10;83.10;;;;;;5045193;28;20151;-43
2022/08/08 11:03:43;;;;;;;1.13;0.60;;;23.10;82.10;;;;;;5045451;28;20919;-43
2022/08/08 11:06:10;;;;;;;2.38;0.70;;;23.10;81.70;;;;;;5045652;28;20495;-44
2022/08/08 11:08:36;;;;;;;1.83;0.77;;;23.10;81.40;;;;;;5045477;28;20068;-43
2022/08/08 11:11:08;;;;;;;0.70;0.60;;;23.20;81.70;;;;;;5046311;28;20055;-42
2022/08/08 11:13:44;;;;;;;1.60;0.70;;;23.20;81.40;;;;;;5046365;28;20029;-43
2022/08/08 11:16:31;;;;;;;2.25;0.52;;;23.30;81.30;;;;;;5046217;28;20096;-43
2022/08/08 11:18:59;;;;;;;2.45;0.82;;;23.40;81.20;;;;;;5045839;28;20025;-43
2022/08/08 11:21:27;;;;;;;0.95;0.60;;;23.40;80.60;;;;;;5044634;28;20524;-43
2022/08/08 11:23:55;;;;;;;0.52;0.47;;;23.40;80.80;;;;;;5045383;28;20117;-42
2022/08/08 11:26:21;;;;;;;0.88;0.70;;;23.40;80.70;;;;;;5046808;28;20087;-43
2022/08/08 11:28:49;;;;;;;1.00;0.73;;;23.30;80.60;;;;;;5045493;28;20028;-44
2022/08/08 11:31:15;;;;;;;2.28;0.90;;;23.20;80.70;;;;;;5046498;28;20138;-44
2022/08/08 11:33:48;;;;;;;1.67;0.60;;;23.20;80.70;;;;;;5045831;28;20025;-43
2022/08/08 11:36:14;;;;;;;1.15;0.65;;;23.10;80.90;;;;;;5045618;28;20036;-43
2022/08/08 11:38:41;;;;;;;1.45;0.57;;;23.20;80.50;;;;;;5045958;28;20035;-43
2022/08/08 11:41:07;;;;;;;0.70;0.45;;;23.30;80.50;;;;;;5046509;28;20020;-43
2022/08/08 11:43:35;;;;;;;1.45;0.70;;;23.40;80.60;;;;;;5044461;28;20044;-43
2022/08/08 11:46:02;;;;;;;2.13;0.50;;;23.40;80.00;;;;;;5045662;28;20644;-43
2022/08/08 11:48:30;;;;;;;0.90;0.57;;;23.50;80.00;;;;;;5045946;28;20032;-43
2022/08/08 11:50:56;;;;;;;2.15;0.60;;;23.50;79.50;;;;;;5045458;28;20013;-43
2022/08/08 11:53:21;;;;;;;1.08;0.60;;;23.50;79.00;;;;;;5045803;28;20028;-43
2022/08/08 11:55:51;;;;;;;1.38;0.50;;;23.60;79.00;;;;;;5045674;28;20024;-43
2022/08/08 11:58:17;;;;;;;0.50;0.50;;;23.60;78.60;;;;;;5044986;28;20036;-43
2022/08/08 12:00:51;;;;;;;1.65;0.80;;;23.50;78.80;;;;;;5045497;28;20847;-43
2022/08/08 12:03:19;;;;;;;1.73;0.80;;;23.60;79.00;;;;;;5045839;28;20037;-44
2022/08/08 12:05:45;;;;;;;2.88;0.70;;;23.60;78.90;;;;;;5044478;28;20040;-43
2022/08/08 12:08:12;;;;;;;1.27;0.80;;;23.60;78.80;;;;;;5045451;28;20031;-43
2022/08/08 12:10:50;;;;;;;0.98;0.60;;;23.60;78.10;;;;;;5044819;28;20025;-43
2022/08/08 12:13:23;;;;;;;0.65;0.50;;;23.60;78.30;;;;;;5045324;28;20095;-43
2022/08/08 12:15:49;;;;;;;2.00;0.65;;;23.50;78.10;;;;;;5045413;28;20496;-44
2022/08/08 12:18:23;;;;;;;0.73;0.60;;;23.60;78.10;;;;;;5045553;28;20025;-43
2022/08/08 12:20:50;;;;;;;0.68;0.50;;;23.60;78.30;;;;;;5045640;28;20029;-44
2022/08/08 12:23:34;;;;;;;0.60;0.50;;;23.80;77.60;;;;;;5045163;28;20060;-44
2022/08/08 12:26:10;;;;;;;1.13;0.90;;;23.80;77.70;;;;;;5044352;28;20025;-46
2022/08/08 12:28:36;;;;;;;1.52;0.80;;;23.80;77.20;;;;;;5045003;28;20189;-44
2022/08/08 12:31:06;;;;;;;2.03;0.65;;;23.80;77.20;;;;;;5047112;28;20472;-35
2022/08/08 12:33:32;;;;;;;0.65;0.45;;;23.90;77.00;;;;;;5048111;28;20057;-34
2022/08/08 12:35:57;;;;;;;0.80;0.50;;;23.90;77.10;;;;;;5049893;28;20098;-35
2022/08/08 12:38:23;;;;;;;1.75;0.77;;;24.00;77.10;;;;;;5049283;28;20477;-34
2022/08/08 12:40:53;;;;;;;2.40;0.68;;;24.00;76.70;;;;;;5048689;28;20124;-34
2022/08/08 12:43:30;;;;;;;0.82;0.63;;;24.00;76.70;;;;;;5048974;28;20048;-34
2022/08/08 12:45:56;;;;;;;1.98;1.35;;;24.00;76.90;;;;;;5048552;28;20057;-36
2022/08/08 12:48:24;;;;;;;2.22;0.70;;;24.00;76.70;;;;;;5050083;28;20067;-35
2022/08/08 12:50:53;;;;;;;2.35;0.60;;;24.10;76.10;;;;;;5049332;28;20017;-33
2022/08/08 12:53:31;;;;;;;2.15;0.70;;;24.10;75.60;;;;;;5048660;28;20036;-34
2022/08/08 12:56:03;;;;;;;1.48;0.50;;;24.10;75.80;;;;;;5048455;28;20039;-33
2022/08/08 12:58:59;;;;;;;1.25;0.63;;;24.20;75.90;;;;;;5048645;28;20054;-34
2022/08/08 13:01:37;;;;;;;1.25;0.60;;;24.20;75.90;;;;;;5046198;28;20049;-35
2022/08/08 13:04:32;;;;;;;1.13;0.60;;;24.30;75.30;;;;;;5048094;28;20041;-36
2022/08/08 13:07:00;;;;;;;1.63;0.63;;;24.20;74.50;;;;;;5036281;28;20081;-34
2022/08/08 13:09:44;;;;;;;1.08;0.60;;;24.30;74.50;;;;;;5048651;28;20021;-32
2022/08/08 13:12:11;;;;;;;0.95;0.50;;;24.30;74.00;;;;;;5039194;28;20051;-35
2022/08/08 13:14:45;;;;;;;1.92;0.70;;;24.40;74.00;;;;;;5047890;28;20029;-34
2022/08/08 13:17:11;;;;;;;1.10;0.60;;;24.40;73.60;;;;;;5038110;28;20025;-35
2022/08/08 13:19:37;;;;;;;1.02;0.52;;;24.40;73.50;;;;;;5048484;28;20036;-35
2022/08/08 13:22:03;;;;;;;0.57;0.57;;;24.40;73.80;;;;;;5047837;28;20013;-34
2022/08/08 13:24:29;;;;;;;1.55;0.95;;;24.40;74.20;;;;;;5048666;28;20135;-34
2022/08/08 13:27:07;;;;;;;2.63;0.95;;;24.40;74.20;;;;;;5046968;28;20025;-34